createdAt,value
2022-12-11T00:01:20.510Z,17.90
2022-12-11T00:03:47.703Z,16.00
2022-12-11T00:06:17.509Z,18.43
2022-12-11T00:08:44.470Z,17.23
2022-12-11T00:11:16.472Z,16.00
2022-12-11T00:13:43.278Z,16.37
2022-12-11T00:16:10.545Z,18.03
2022-12-11T00:18:37.569Z,16.70
2022-12-11T00:21:06.346Z,19.87
2022-12-11T00:23:35.267Z,19.33
2022-12-11T00:26:06.487Z,17.00
2022-12-11T00:28:33.381Z,16.97
2022-12-11T00:31:02.961Z,17.20
2022-12-11T00:33:29.579Z,18.73
2022-12-11T00:35:56.328Z,18.63
2022-12-11T00:38:24.093Z,17.73
2022-12-11T00:40:50.880Z,18.50
2022-12-11T00:43:17.962Z,18.40
2022-12-11T00:45:46.969Z,16.67
2022-12-11T00:48:13.981Z,17.47
2022-12-11T00:50:41.018Z,19.70
2022-12-11T00:53:08.171Z,18.10
2022-12-11T00:55:39.811Z,18.17
2022-12-11T00:58:06.932Z,16.50
2022-12-11T01:00:33.815Z,18.10
2022-12-11T01:03:00.854Z,18.63
2022-12-11T01:05:27.804Z,18.07
2022-12-11T01:07:54.695Z,17.03
2022-12-11T01:10:24.111Z,15.03
2022-12-11T01:12:57.351Z,19.17
2022-12-11T01:15:26.650Z,16.17
2022-12-11T01:17:53.482Z,20.00
2022-12-11T01:20:22.519Z,16.57
2022-12-11T01:22:53.060Z,15.73
2022-12-11T01:25:19.901Z,15.93
2022-12-11T01:27:46.776Z,19.47
2022-12-11T01:30:14.189Z,19.10
2022-12-11T01:32:40.915Z,17.93
2022-12-11T01:35:08.407Z,18.27
2022-12-11T01:37:35.547Z,18.27
2022-12-11T01:40:02.605Z,19.73
2022-12-11T01:42:29.637Z,18.20
2022-12-11T01:45:27.660Z,18.23
2022-12-11T01:48:07.035Z,18.37
2022-12-11T01:50:38.691Z,18.90
2022-12-11T01:53:08.696Z,19.33
2022-12-11T01:55:37.739Z,18.63
2022-12-11T01:58:05.442Z,21.47
2022-12-11T02:00:32.197Z,17.37
2022-12-11T02:02:58.837Z,17.77
2022-12-11T02:05:25.435Z,20.57
2022-12-11T02:07:56.988Z,19.13
2022-12-11T02:10:35.558Z,16.53
2022-12-11T02:13:13.028Z,16.50
2022-12-11T02:15:50.687Z,20.13
2022-12-11T02:18:47.782Z,20.87
2022-12-11T02:21:32.536Z,20.30
2022-12-11T02:24:06.187Z,16.70
2022-12-11T02:27:10.478Z,19.23
2022-12-11T02:29:52.545Z,17.43
2022-12-11T02:32:27.725Z,21.13
2022-12-11T02:35:03.305Z,20.17
2022-12-11T02:37:33.397Z,20.50
2022-12-11T02:40:00.143Z,19.87
2022-12-11T02:42:31.240Z,18.67
2022-12-11T02:45:00.986Z,20.03
2022-12-11T02:47:30.292Z,19.97
2022-12-11T02:50:00.332Z,20.93
2022-12-11T02:52:29.711Z,20.73
2022-12-11T02:54:58.849Z,18.00
2022-12-11T02:57:34.855Z,20.07
2022-12-11T03:00:01.806Z,20.40
2022-12-11T03:02:28.638Z,18.73
2022-12-11T03:04:57.260Z,21.57
2022-12-11T03:07:28.788Z,19.27
2022-12-11T03:09:55.743Z,19.37
2022-12-11T03:12:28.180Z,18.27
2022-12-11T03:14:55.974Z,20.97
2022-12-11T03:17:26.680Z,21.63
2022-12-11T03:20:07.433Z,20.07
2022-12-11T03:22:43.704Z,20.47
2022-12-11T03:25:17.941Z,21.03
2022-12-11T03:28:11.244Z,20.60
2022-12-11T03:30:40.133Z,21.50
2022-12-11T03:33:15.484Z,20.83
2022-12-11T03:35:44.967Z,19.20
2022-12-11T03:38:38.880Z,21.97
2022-12-11T03:41:08.387Z,21.93
2022-12-11T03:43:37.344Z,20.70
2022-12-11T03:46:05.347Z,21.27
2022-12-11T03:48:36.026Z,21.90
2022-12-11T03:51:06.653Z,22.37
2022-12-11T03:53:35.722Z,20.83
2022-12-11T03:56:06.126Z,19.60
2022-12-11T03:58:33.237Z,21.60
2022-12-11T04:00:59.850Z,20.33
2022-12-11T04:03:26.622Z,20.30
2022-12-11T04:05:55.477Z,21.03
2022-12-11T04:08:23.455Z,19.43
2022-12-11T04:11:10.945Z,20.97
2022-12-11T04:13:38.540Z,19.27
2022-12-11T04:16:05.588Z,20.13
2022-12-11T04:18:51.386Z,20.47
2022-12-11T04:21:39.650Z,18.00
2022-12-11T04:24:16.158Z,20.47
2022-12-11T04:26:45.308Z,19.03
2022-12-11T04:29:12.895Z,22.23
2022-12-11T04:31:39.839Z,19.47
2022-12-11T04:34:07.053Z,21.10
2022-12-11T04:36:33.718Z,18.93
2022-12-11T04:39:00.418Z,20.23
2022-12-11T04:41:27.004Z,19.27
2022-12-11T04:43:53.708Z,21.93
2022-12-11T04:46:22.654Z,21.00
2022-12-11T04:48:55.362Z,18.90
2022-12-11T04:51:24.160Z,20.93
2022-12-11T04:53:50.769Z,20.67
2022-12-11T04:56:17.443Z,20.07
2022-12-11T04:58:45.123Z,18.33
2022-12-11T05:01:19.807Z,20.23
2022-12-11T05:03:47.245Z,18.70
2022-12-11T05:06:14.370Z,20.27
2022-12-11T05:08:42.678Z,20.17
2022-12-11T05:11:11.714Z,19.40
2022-12-11T05:13:38.409Z,18.90
2022-12-11T05:16:07.069Z,19.97
2022-12-11T05:18:34.092Z,17.93
2022-12-11T05:21:07.037Z,18.73
2022-12-11T05:23:33.949Z,18.93
2022-12-11T05:26:03.747Z,19.17
2022-12-11T05:28:32.454Z,18.00
2022-12-11T05:31:08.964Z,17.03
2022-12-11T05:33:35.750Z,17.53
2022-12-11T05:36:02.808Z,20.90
2022-12-11T05:38:29.729Z,18.83
2022-12-11T05:41:04.846Z,20.20
2022-12-11T05:43:33.863Z,19.33
2022-12-11T05:46:22.219Z,16.70
2022-12-11T05:48:50.658Z,19.27
2022-12-11T05:51:17.791Z,18.17
2022-12-11T05:53:46.239Z,22.57
2022-12-11T05:56:19.251Z,17.00
2022-12-11T05:58:47.031Z,21.93
2022-12-11T06:01:28.530Z,17.90
2022-12-11T06:03:56.193Z,18.23
2022-12-11T06:06:23.682Z,18.80
2022-12-11T06:08:55.335Z,21.30
2022-12-11T06:11:24.265Z,20.63
2022-12-11T06:13:51.991Z,18.33
2022-12-11T06:16:18.758Z,19.10
2022-12-11T06:18:45.849Z,18.27
2022-12-11T06:21:14.770Z,20.23
2022-12-11T06:23:42.368Z,19.63
2022-12-11T06:26:10.545Z,19.43
2022-12-11T06:28:37.432Z,18.40
2022-12-11T06:31:04.746Z,19.07
2022-12-11T06:33:31.820Z,20.77
2022-12-11T06:36:05.745Z,18.30
2022-12-11T06:38:32.510Z,19.30
2022-12-11T06:41:01.428Z,18.63
2022-12-11T06:43:28.089Z,20.10
2022-12-11T06:45:57.971Z,17.90
2022-12-11T06:48:28.923Z,18.83
2022-12-11T06:50:55.553Z,25.40
2022-12-11T06:53:22.586Z,18.03
2022-12-11T06:55:49.485Z,18.10
2022-12-11T06:58:16.761Z,18.60
2022-12-11T07:00:43.460Z,19.27
2022-12-11T07:03:10.364Z,20.40
2022-12-11T07:05:36.985Z,19.37
2022-12-11T07:08:03.708Z,21.37
2022-12-11T07:10:30.394Z,19.43
2022-12-11T07:12:57.112Z,19.07
2022-12-11T07:15:23.796Z,18.73
2022-12-11T07:17:50.477Z,17.53
2022-12-11T07:20:17.308Z,18.37
2022-12-11T07:22:46.662Z,18.80
2022-12-11T07:25:14.223Z,20.83
2022-12-11T07:27:41.691Z,19.90
2022-12-11T07:30:09.325Z,18.37
2022-12-11T07:32:35.985Z,22.33
2022-12-11T07:35:02.736Z,17.97
2022-12-11T07:37:29.339Z,18.53
2022-12-11T07:39:55.994Z,19.10
2022-12-11T07:42:22.627Z,16.60
2022-12-11T07:44:49.786Z,16.87
2022-12-11T07:47:16.420Z,16.83
2022-12-11T07:49:43.071Z,18.37
2022-12-11T07:52:10.057Z,17.93
2022-12-11T07:54:37.068Z,17.93
2022-12-11T07:57:03.800Z,18.07
2022-12-11T07:59:31.022Z,16.77
2022-12-11T08:01:57.676Z,17.67
2022-12-11T08:04:24.334Z,18.47
2022-12-11T08:06:50.991Z,18.57
2022-12-11T08:09:21.268Z,16.37
2022-12-11T08:11:51.922Z,17.10
2022-12-11T08:14:19.517Z,17.40
2022-12-11T08:16:46.537Z,15.50
2022-12-11T08:19:13.686Z,18.60
2022-12-11T08:21:41.160Z,18.63
2022-12-11T08:24:09.202Z,18.97
2022-12-11T08:26:35.994Z,18.00
2022-12-11T08:29:03.485Z,17.33
2022-12-11T08:31:30.583Z,18.40
2022-12-11T08:33:57.854Z,17.40
2022-12-11T08:36:25.224Z,16.83
2022-12-11T08:38:52.376Z,17.43
2022-12-11T08:41:22.071Z,17.17
2022-12-11T08:43:48.902Z,15.87
2022-12-11T08:46:15.933Z,16.87
2022-12-11T08:48:43.439Z,15.87
2022-12-11T08:51:15.648Z,17.23
2022-12-11T08:53:43.274Z,16.60
2022-12-11T08:56:12.767Z,15.03
2022-12-11T08:58:39.454Z,14.77
2022-12-11T09:01:08.823Z,15.00
2022-12-11T09:03:36.879Z,18.03
2022-12-11T09:06:12.650Z,15.77
2022-12-11T09:08:40.022Z,15.87
2022-12-11T09:11:12.795Z,15.90
2022-12-11T09:13:40.034Z,14.97
2022-12-11T09:16:12.936Z,14.97
2022-12-11T09:18:40.445Z,15.33
2022-12-11T09:21:10.019Z,15.63
2022-12-11T09:23:37.099Z,15.27
2022-12-11T09:26:08.842Z,17.30
2022-12-11T09:28:35.506Z,14.03
2022-12-11T09:31:02.242Z,16.10
2022-12-11T09:33:28.934Z,15.77
2022-12-11T09:35:59.569Z,15.53
2022-12-11T09:38:27.010Z,17.50
2022-12-11T09:40:53.997Z,17.33
2022-12-11T09:43:44.407Z,15.77
2022-12-11T09:46:14.697Z,19.23
2022-12-11T09:48:51.155Z,14.87
2022-12-11T09:51:28.105Z,18.47
2022-12-11T09:53:59.478Z,18.13
2022-12-11T09:56:38.523Z,16.57
2022-12-11T09:59:17.971Z,16.53
2022-12-11T10:02:12.583Z,16.83
2022-12-11T10:05:04.072Z,17.97
2022-12-11T10:07:36.297Z,17.77
2022-12-11T10:10:30.905Z,15.00
2022-12-11T10:13:27.291Z,18.27
2022-12-11T10:16:04.032Z,17.87
2022-12-11T10:18:32.511Z,14.57
2022-12-11T10:21:02.092Z,14.37
2022-12-11T10:23:43.147Z,15.93
2022-12-11T10:26:18.795Z,15.87
2022-12-11T10:28:45.472Z,15.10
2022-12-11T10:31:24.343Z,16.97
2022-12-11T10:34:12.075Z,15.10
2022-12-11T10:36:40.536Z,14.97
2022-12-11T10:39:20.845Z,18.73
2022-12-11T10:41:50.170Z,18.43
2022-12-11T10:44:18.551Z,16.60
2022-12-11T10:46:49.432Z,16.07
2022-12-11T10:49:31.454Z,16.03
2022-12-11T10:52:01.454Z,15.87
2022-12-11T10:54:33.818Z,17.23
2022-12-11T10:57:02.777Z,14.90
2022-12-11T10:59:37.555Z,16.27
2022-12-11T11:02:07.086Z,16.97
2022-12-11T11:04:38.115Z,16.70
2022-12-11T11:07:16.810Z,16.33
2022-12-11T11:09:50.768Z,15.17
2022-12-11T11:12:27.958Z,16.23
2022-12-11T11:15:05.675Z,14.60
2022-12-11T11:17:35.341Z,19.13
2022-12-11T11:20:13.187Z,13.77
2022-12-11T11:23:00.047Z,17.83
2022-12-11T11:25:29.902Z,16.47
2022-12-11T11:28:06.367Z,19.33
2022-12-11T11:30:39.507Z,16.37
2022-12-11T11:33:26.571Z,16.97
2022-12-11T11:35:58.971Z,16.43
2022-12-11T11:38:31.519Z,15.87
2022-12-11T11:41:14.722Z,17.07
2022-12-11T11:43:59.791Z,18.37
2022-12-11T11:46:47.211Z,17.10
2022-12-11T11:49:18.761Z,19.53
2022-12-11T11:52:02.207Z,20.43
2022-12-11T11:54:41.444Z,18.03
2022-12-11T11:57:39.653Z,16.77
2022-12-11T12:00:16.902Z,21.57
2022-12-11T12:02:44.108Z,20.67
2022-12-11T12:05:14.430Z,26.53
2022-12-11T12:08:04.264Z,23.83
2022-12-11T12:10:56.172Z,23.87
2022-12-11T12:13:56.101Z,27.47
2022-12-11T12:16:54.350Z,26.30
2022-12-11T12:19:58.446Z,23.10
2022-12-11T12:22:44.365Z,25.53
2022-12-11T12:25:16.413Z,23.17
2022-12-11T12:27:53.241Z,20.60
2022-12-11T12:30:23.225Z,23.03
2022-12-11T12:33:19.272Z,21.77
2022-12-11T12:36:14.035Z,20.97
2022-12-11T12:39:02.255Z,21.20
2022-12-11T12:41:46.918Z,27.63
2022-12-11T12:44:22.811Z,21.93
2022-12-11T12:47:00.140Z,22.20
2022-12-11T12:49:42.711Z,24.37
2022-12-11T12:52:19.144Z,23.87
2022-12-11T12:55:09.533Z,21.53
2022-12-11T12:57:38.533Z,21.13
2022-12-11T13:02:50.453Z,28.37
2022-12-11T13:05:35.357Z,24.40
2022-12-11T13:08:05.251Z,22.13
2022-12-11T13:10:41.786Z,22.20
2022-12-11T13:13:54.743Z,22.80
2022-12-11T13:16:35.155Z,24.53
2022-12-11T13:19:02.448Z,23.53
2022-12-11T13:21:36.610Z,26.23
2022-12-11T13:24:26.050Z,23.80
2022-12-11T13:26:54.796Z,23.73
2022-12-11T13:29:42.453Z,25.37
2022-12-11T13:32:09.399Z,24.57
2022-12-11T13:34:40.329Z,24.03
2022-12-11T13:37:27.479Z,24.40
2022-12-11T13:39:55.607Z,28.63
2022-12-11T13:42:31.642Z,30.40
2022-12-11T13:44:59.183Z,24.47
2022-12-11T13:47:26.576Z,27.80
2022-12-11T13:50:12.223Z,35.50
2022-12-11T13:52:38.971Z,25.10
2022-12-11T13:55:23.286Z,26.70
2022-12-11T13:57:50.060Z,26.07
2022-12-11T14:00:26.362Z,36.77
2022-12-11T14:02:57.743Z,27.13
2022-12-11T14:05:25.003Z,30.47
2022-12-11T14:08:10.125Z,28.37
2022-12-11T14:10:38.988Z,28.77
2022-12-11T14:13:13.870Z,29.17
2022-12-11T14:15:45.615Z,27.87
2022-12-11T14:18:24.908Z,68.37
2022-12-11T14:21:00.984Z,57.03
2022-12-11T14:23:33.087Z,32.43
2022-12-11T14:26:02.153Z,29.27
2022-12-11T14:28:35.814Z,31.00
2022-12-11T14:31:03.875Z,32.40
2022-12-11T14:33:38.527Z,25.47
2022-12-11T14:36:06.906Z,28.83
2022-12-11T14:39:05.078Z,25.50
2022-12-11T14:41:55.318Z,24.43
2022-12-11T14:44:25.654Z,28.13
2022-12-11T14:47:02.838Z,24.90
2022-12-11T14:49:43.213Z,25.43
2022-12-11T14:52:24.061Z,27.77
2022-12-11T14:55:01.351Z,25.67
2022-12-11T14:57:31.138Z,24.23
2022-12-11T14:59:58.099Z,25.13
2022-12-11T15:02:32.059Z,25.27
2022-12-11T15:05:07.591Z,25.20
2022-12-11T15:07:34.416Z,25.43
2022-12-11T15:10:01.059Z,25.87
2022-12-11T15:12:27.819Z,24.60
2022-12-11T15:14:58.168Z,25.90
2022-12-11T15:17:26.186Z,27.03
2022-12-11T15:20:02.816Z,26.60
2022-12-11T15:22:32.244Z,26.03
2022-12-11T15:25:00.127Z,29.53
2022-12-11T15:27:39.109Z,24.87
2022-12-11T15:30:18.371Z,25.37
2022-12-11T15:32:45.102Z,27.57
2022-12-11T15:35:24.999Z,29.37
2022-12-11T15:37:57.558Z,27.90
2022-12-11T15:40:24.871Z,27.73
2022-12-11T15:42:52.260Z,25.73
2022-12-11T15:45:25.161Z,25.10
2022-12-11T15:47:54.753Z,27.97
2022-12-11T15:50:26.847Z,26.20
2022-12-11T15:52:55.329Z,31.63
2022-12-11T15:55:23.538Z,25.83
2022-12-11T15:58:00.434Z,24.50
2022-12-11T16:00:28.092Z,25.73
2022-12-11T16:02:55.674Z,25.30
2022-12-11T16:05:22.866Z,28.17
2022-12-11T16:07:52.158Z,28.77
2022-12-11T16:10:20.003Z,29.00
2022-12-11T16:12:47.306Z,26.47
2022-12-11T16:15:21.422Z,28.00
2022-12-11T16:17:49.594Z,28.73
2022-12-11T16:20:16.218Z,28.40
2022-12-11T16:22:42.834Z,26.40
2022-12-11T16:25:09.889Z,27.87
2022-12-11T16:27:36.718Z,32.20
2022-12-11T16:30:05.016Z,30.63
2022-12-11T16:32:31.687Z,28.63
2022-12-11T16:35:01.018Z,30.30
2022-12-11T16:37:28.044Z,27.23
2022-12-11T16:39:54.640Z,30.97
2022-12-11T16:42:21.253Z,26.57
2022-12-11T16:44:48.353Z,28.10
2022-12-11T16:47:15.084Z,26.60
2022-12-11T16:49:43.142Z,27.47
2022-12-11T16:52:09.779Z,30.37
2022-12-11T16:54:37.535Z,32.40
2022-12-11T16:57:04.234Z,31.33
2022-12-11T16:59:36.604Z,32.07
2022-12-11T17:02:04.221Z,29.23
2022-12-11T17:04:31.000Z,31.43
2022-12-11T17:06:57.576Z,32.83
2022-12-11T17:09:24.149Z,35.47
2022-12-11T17:11:50.724Z,32.43
2022-12-11T17:14:17.318Z,33.77
2022-12-11T17:16:44.042Z,32.77
2022-12-11T17:19:10.641Z,37.37
2022-12-11T17:21:39.199Z,33.73
2022-12-11T17:24:07.335Z,31.83
2022-12-11T17:26:36.376Z,34.57
2022-12-11T17:29:03.398Z,30.03
2022-12-11T17:31:30.081Z,28.07
2022-12-11T17:34:00.444Z,34.57
2022-12-11T17:36:27.554Z,36.20
2022-12-11T17:38:54.147Z,35.13
2022-12-11T17:41:21.772Z,32.57
2022-12-11T17:43:53.480Z,34.03
2022-12-11T17:46:20.609Z,36.93
2022-12-11T17:48:48.027Z,33.33
2022-12-11T17:51:24.159Z,29.43
2022-12-11T17:53:51.893Z,46.20
2022-12-11T17:56:18.528Z,56.47
2022-12-11T17:58:45.280Z,47.73
2022-12-11T18:01:14.946Z,51.03
2022-12-11T18:03:42.571Z,41.47
2022-12-11T18:06:12.704Z,48.10
2022-12-11T18:08:39.758Z,44.47
2022-12-11T18:11:15.150Z,51.40
2022-12-11T18:13:43.483Z,48.33
2022-12-11T18:16:19.215Z,47.80
2022-12-11T18:18:47.403Z,51.00
2022-12-11T18:21:19.477Z,46.47
2022-12-11T18:23:46.168Z,44.30
2022-12-11T18:26:14.628Z,50.30
2022-12-11T18:28:42.222Z,45.83
2022-12-11T18:31:09.747Z,48.90
2022-12-11T18:33:38.189Z,48.63
2022-12-11T18:36:05.779Z,44.97
2022-12-11T18:38:33.241Z,49.70
2022-12-11T18:41:03.827Z,50.37
2022-12-11T18:43:30.517Z,53.57
2022-12-11T18:45:57.241Z,52.83
2022-12-11T18:48:24.139Z,43.27
2022-12-11T18:50:51.638Z,43.47
2022-12-11T18:53:24.694Z,42.43
2022-12-11T18:55:55.782Z,42.97
2022-12-11T18:58:25.319Z,44.13
2022-12-11T19:00:52.074Z,44.67
2022-12-11T19:03:18.694Z,46.20
2022-12-11T19:05:45.282Z,57.37
2022-12-11T19:08:13.651Z,48.37
2022-12-11T19:10:45.910Z,51.33
2022-12-11T19:13:13.758Z,48.20
2022-12-11T19:15:42.737Z,53.57
2022-12-11T19:18:10.121Z,44.90
2022-12-11T19:21:03.217Z,47.80
2022-12-11T19:23:25.194Z,53.43
2022-12-11T19:25:52.054Z,47.87
2022-12-11T19:28:18.757Z,47.20
2022-12-11T19:30:47.722Z,45.93
2022-12-11T19:33:14.877Z,49.80
2022-12-11T19:35:41.710Z,56.43
2022-12-11T19:38:08.483Z,54.77
2022-12-11T19:40:40.576Z,53.97
2022-12-11T19:43:07.200Z,49.97
2022-12-11T19:45:33.756Z,52.50
2022-12-11T19:48:00.420Z,52.43
2022-12-11T19:50:27.026Z,50.03
2022-12-11T19:52:53.586Z,52.90
2022-12-11T19:55:21.517Z,52.70
2022-12-11T19:57:48.228Z,48.90
2022-12-11T20:00:15.136Z,54.60
2022-12-11T20:02:41.706Z,51.30
2022-12-11T20:05:09.618Z,58.83
2022-12-11T20:07:39.781Z,60.90
2022-12-11T20:10:08.950Z,50.50
2022-12-11T20:12:35.707Z,48.03
2022-12-11T20:15:04.297Z,62.37
2022-12-11T20:17:33.161Z,55.23
2022-12-11T20:19:59.839Z,63.60
2022-12-11T20:22:26.651Z,62.50
2022-12-11T20:24:53.238Z,57.43
2022-12-11T20:27:19.955Z,58.07
2022-12-11T20:29:46.599Z,65.33
2022-12-11T20:32:13.313Z,62.13
2022-12-11T20:34:40.228Z,62.90
2022-12-11T20:37:07.694Z,63.77
2022-12-11T20:39:35.567Z,59.70
2022-12-11T20:42:04.669Z,61.73
2022-12-11T20:44:31.999Z,62.03
2022-12-11T20:46:58.631Z,65.77
2022-12-11T20:49:25.409Z,67.70
2022-12-11T20:51:52.003Z,70.57
2022-12-11T20:54:18.668Z,75.07
2022-12-11T20:56:45.557Z,69.87
2022-12-11T20:59:13.222Z,74.77
2022-12-11T21:01:40.728Z,73.13
2022-12-11T21:04:07.548Z,74.97
2022-12-11T21:06:36.863Z,70.67
2022-12-11T21:09:08.093Z,76.63
2022-12-11T21:11:34.756Z,69.17
2022-12-11T21:14:01.391Z,76.60
2022-12-11T21:16:28.589Z,82.93
2022-12-11T21:18:56.116Z,85.50
2022-12-11T21:21:23.106Z,80.10
2022-12-11T21:23:50.157Z,81.47
2022-12-11T21:26:17.369Z,85.00
2022-12-11T21:28:44.206Z,80.03
2022-12-11T21:31:14.663Z,80.73
2022-12-11T21:33:41.645Z,78.03
2022-12-11T21:36:11.121Z,82.60
2022-12-11T21:38:38.351Z,86.67
2022-12-11T21:41:10.437Z,84.07
2022-12-11T21:43:43.389Z,84.67
2022-12-11T21:46:26.378Z,83.50
2022-12-11T21:48:53.386Z,80.10
2022-12-11T21:51:31.074Z,77.40
2022-12-11T21:54:03.393Z,75.57
2022-12-11T21:56:31.621Z,81.57
2022-12-11T21:58:58.299Z,73.67
2022-12-11T22:01:31.315Z,79.00
2022-12-11T22:03:58.447Z,77.53
2022-12-11T22:06:25.189Z,84.53
2022-12-11T22:08:51.876Z,76.47
2022-12-11T22:11:24.695Z,74.53
2022-12-11T22:13:51.710Z,76.77
2022-12-11T22:16:18.783Z,90.57
2022-12-11T22:18:45.916Z,84.07
2022-12-11T22:21:12.798Z,81.83
2022-12-11T22:23:40.361Z,81.73
2022-12-11T22:26:07.991Z,86.60
2022-12-11T22:28:34.789Z,86.73
2022-12-11T22:31:01.958Z,84.50
2022-12-11T22:33:28.586Z,79.73
2022-12-11T22:35:59.626Z,74.73
2022-12-11T22:38:26.774Z,85.13
2022-12-11T22:40:54.459Z,73.83
2022-12-11T22:43:21.706Z,67.03
2022-12-11T22:45:48.384Z,72.07
2022-12-11T22:48:15.240Z,63.10
2022-12-11T22:50:42.667Z,72.03
2022-12-11T22:53:09.949Z,70.50
2022-12-11T22:55:39.910Z,67.87
2022-12-11T22:58:07.282Z,63.77
2022-12-11T23:00:33.997Z,69.33
2022-12-11T23:03:01.995Z,65.80
2022-12-11T23:05:28.991Z,65.17
2022-12-11T23:07:55.646Z,74.27
2022-12-11T23:10:22.388Z,68.33
2022-12-11T23:12:49.011Z,67.33
2022-12-11T23:15:17.787Z,74.50
2022-12-11T23:17:44.489Z,66.80
2022-12-11T23:20:12.222Z,66.23
2022-12-11T23:22:38.799Z,69.63
2022-12-11T23:25:05.893Z,67.30
2022-12-11T23:27:32.615Z,69.77
2022-12-11T23:29:59.226Z,72.33
2022-12-11T23:32:25.774Z,67.80
2022-12-11T23:34:52.556Z,68.97
2022-12-11T23:37:19.175Z,72.47
2022-12-11T23:39:45.845Z,77.73
2022-12-11T23:42:12.467Z,74.17
2022-12-11T23:44:39.114Z,75.87
2022-12-11T23:47:05.856Z,77.10
2022-12-11T23:49:32.669Z,88.67
2022-12-11T23:51:59.370Z,80.00
2022-12-11T23:54:25.975Z,78.57
2022-12-11T23:56:52.566Z,88.67
2022-12-11T23:59:19.628Z,87.37
